Time;durP1;ratioP1;P1;durP2;ratioP2;P2;SDS_P1;SDS_P2;PMS_P1;PMS_P2;Temp;Humidity;BMP_temperature;BMP_pressure;BME280_temperature;BME280_humidity;BME280_pressure;Samples;Min_cycle;Max_cycle;Signal;HPM_P1;HPM_P2
2022/12/25 00:01:59;;;;;;;5.53;4.90;;;;;;;;;;4935217;28;20232;-73
2022/12/25 00:04:26;;;;;;;5.37;4.90;;;;;;;;;;4927931;28;20856;-72
2022/12/25 00:06:54;;;;;;;7.07;5.20;;;;;;;;;;4936992;28;20925;-72
2022/12/25 00:09:21;;;;;;;9.13;5.90;;;;;;;;;;4931232;28;20689;-74
2022/12/25 00:11:48;;;;;;;7.40;5.70;;;;;;;;;;4930623;28;20286;-74
2022/12/25 00:14:16;;;;;;;6.73;5.83;;;;;;;;;;4933307;28;20215;-74
2022/12/25 00:16:43;;;;;;;7.30;5.33;;;;;;;;;;4930449;28;20735;-74
2022/12/25 00:19:11;;;;;;;7.67;5.33;;;;;;;;;;4927647;28;20299;-74
2022/12/25 00:21:38;;;;;;;6.60;4.77;;;;;;;;;;4943618;28;20259;-73
2022/12/25 00:24:05;;;;;;;6.27;4.37;;;;;;;;;;4930331;28;20220;-74
2022/12/25 00:26:33;;;;;;;6.17;4.40;;;;;;;;;;4920812;28;20209;-73
2022/12/25 00:29:00;;;;;;;4.27;3.77;;;;;;;;;;4913968;28;20282;-73
2022/12/25 00:31:27;;;;;;;4.67;4.27;;;;;;;;;;4922905;28;20356;-73
2022/12/25 00:33:55;;;;;;;6.17;4.57;;;;;;;;;;4919923;28;20212;-73
2022/12/25 00:36:22;;;;;;;4.37;3.97;;;;;;;;;;4931550;28;20710;-73
2022/12/25 00:38:49;;;;;;;5.03;3.90;;;;;;;;;;4918875;28;21687;-73
2022/12/25 00:44:07;;;;;;;6.30;5.13;;;;;;;;;;4895082;28;20913;-73
2022/12/25 00:46:34;;;;;;;8.10;6.73;;;;;;;;;;4912704;28;20217;-73
2022/12/25 00:49:02;;;;;;;6.27;4.73;;;;;;;;;;4916054;28;20208;-72
2022/12/25 00:51:30;;;;;;;6.57;5.50;;;;;;;;;;4924374;28;20333;-73
2022/12/25 00:53:57;;;;;;;6.83;5.77;;;;;;;;;;4934485;28;20208;-73
2022/12/25 00:56:25;;;;;;;7.73;5.87;;;;;;;;;;4913926;28;20216;-72
2022/12/25 00:58:53;;;;;;;6.13;5.07;;;;;;;;;;4923594;28;20218;-73
2022/12/25 01:01:20;;;;;;;6.50;5.50;;;;;;;;;;4903252;28;20235;-72
2022/12/25 01:03:48;;;;;;;8.67;6.43;;;;;;;;;;4926117;28;20606;-72
2022/12/25 01:06:15;;;;;;;8.67;6.10;;;;;;;;;;4915613;28;20295;-72
2022/12/25 01:11:29;;;;;;;8.17;5.37;;;;;;;;;;4920966;28;20236;-73
2022/12/25 01:13:56;;;;;;;9.10;5.23;;;;;;;;;;4929467;28;20217;-73
2022/12/25 01:16:23;;;;;;;9.53;5.50;;;;;;;;;;4921776;28;21012;-73
2022/12/25 01:18:50;;;;;;;8.17;4.80;;;;;;;;;;4928147;28;20223;-73
2022/12/25 01:21:21;;;;;;;6.43;4.90;;;;;;;;;;4925329;28;20354;-73
2022/12/25 01:23:50;;;;;;;7.00;4.93;;;;;;;;;;4930082;28;20217;-73
2022/12/25 01:26:17;;;;;;;8.13;4.70;;;;;;;;;;4922995;28;20303;-73
2022/12/25 01:28:44;;;;;;;6.00;4.47;;;;;;;;;;4924082;28;20209;-73
2022/12/25 01:31:13;;;;;;;7.83;5.00;;;;;;;;;;4931425;28;21368;-73
2022/12/25 01:33:41;;;;;;;7.20;5.00;;;;;;;;;;4939187;28;20212;-72
2022/12/25 01:36:16;;;;;;;10.13;5.50;;;;;;;;;;4950749;28;20215;-72
2022/12/25 01:38:43;;;;;;;7.17;5.23;;;;;;;;;;4959063;28;20271;-72
2022/12/25 01:41:11;;;;;;;10.80;6.13;;;;;;;;;;4954291;28;20639;-72
2022/12/25 01:43:56;;;;;;;8.53;5.73;;;;;;;;;;4963420;28;20316;-72
2022/12/25 01:46:23;;;;;;;18.40;6.53;;;;;;;;;;4956975;28;20292;-72
2022/12/25 01:48:51;;;;;;;14.60;5.97;;;;;;;;;;4968759;28;20924;-72
2022/12/25 01:51:24;;;;;;;9.47;6.37;;;;;;;;;;4975404;28;20770;-72
2022/12/25 01:53:52;;;;;;;22.17;7.40;;;;;;;;;;4973761;28;20299;-72
2022/12/25 01:56:19;;;;;;;16.90;6.50;;;;;;;;;;4923025;28;20222;-73
2022/12/25 01:58:46;;;;;;;19.73;10.37;;;;;;;;;;4932442;28;20204;-73
2022/12/25 02:01:14;;;;;;;28.20;11.17;;;;;;;;;;4899813;28;21329;-73
2022/12/25 02:03:41;;;;;;;33.23;16.63;;;;;;;;;;4913814;28;21136;-73
2022/12/25 02:06:08;;;;;;;33.37;15.37;;;;;;;;;;4930389;28;20807;-73
2022/12/25 02:08:36;;;;;;;25.13;11.07;;;;;;;;;;4917949;28;20245;-73
2022/12/25 02:11:03;;;;;;;18.27;8.57;;;;;;;;;;4925783;28;20415;-73
2022/12/25 02:13:30;;;;;;;17.90;8.90;;;;;;;;;;4928275;28;21511;-73
2022/12/25 02:16:19;;;;;;;23.70;11.00;;;;;;;;;;4930287;28;20208;-73
2022/12/25 02:19:10;;;;;;;19.47;8.17;;;;;;;;;;4924650;28;20279;-73
2022/12/25 02:21:46;;;;;;;34.67;7.20;;;;;;;;;;4915042;28;20377;-73
2022/12/25 02:24:32;;;;;;;15.67;6.87;;;;;;;;;;4933348;28;20780;-73
2022/12/25 02:27:02;;;;;;;32.90;7.63;;;;;;;;;;4921115;28;20204;-73
2022/12/25 02:29:32;;;;;;;24.70;7.37;;;;;;;;;;4917898;28;20304;-72
2022/12/25 02:32:12;;;;;;;18.20;7.20;;;;;;;;;;4929867;28;20283;-73
2022/12/25 02:34:48;;;;;;;21.20;7.23;;;;;;;;;;4931555;28;20219;-72
2022/12/25 02:37:18;;;;;;;21.50;6.93;;;;;;;;;;4926751;28;20204;-73
2022/12/25 02:39:58;;;;;;;10.93;6.77;;;;;;;;;;4919307;28;20212;-73
2022/12/25 03:06:41;;;;;;;12.93;7.10;;;;;;;;;;4923818;28;20271;-72
2022/12/25 03:07:38;;;;;;;9.20;6.90;;;;;;;;;;4932979;28;20216;-72
2022/12/25 03:13:13;;;;;;;10.90;6.87;;;;;;;;;;4931376;28;20847;-72
2022/12/25 03:18:28;;;;;;;9.07;6.70;;;;;;;;;;4939017;28;20715;-71
2022/12/25 03:31:10;;;;;;;7.63;5.43;;;;;;;;;;4937195;28;20209;-72
2022/12/25 03:32:09;;;;;;;8.23;5.60;;;;;;;;;;4927186;28;20229;-72
2022/12/25 04:36:08;;;;;;;15.17;6.50;;;;;;;;;;4904689;28;20213;-72
2022/12/25 04:38:35;;;;;;;9.67;5.07;;;;;;;;;;4920156;28;22386;-73
2022/12/25 04:41:02;;;;;;;5.40;3.90;;;;;;;;;;4923269;28;20241;-73
2022/12/25 04:43:30;;;;;;;4.80;4.00;;;;;;;;;;4956212;28;20226;-72
2022/12/25 04:45:58;;;;;;;4.97;4.10;;;;;;;;;;4925095;28;20239;-73
2022/12/25 04:48:26;;;;;;;6.30;4.50;;;;;;;;;;4925219;28;20205;-74
2022/12/25 04:50:54;;;;;;;5.73;4.20;;;;;;;;;;4931510;28;20592;-72
2022/12/25 04:53:21;;;;;;;8.03;4.90;;;;;;;;;;4922828;28;20213;-72
2022/12/25 04:55:49;;;;;;;5.63;4.37;;;;;;;;;;4922836;28;20217;-74
2022/12/25 04:58:16;;;;;;;6.20;4.77;;;;;;;;;;4917218;28;21370;-75
2022/12/25 05:00:43;;;;;;;5.00;4.33;;;;;;;;;;4917411;28;20228;-73
2022/12/25 05:03:10;;;;;;;5.50;4.43;;;;;;;;;;4905948;28;20225;-73
2022/12/25 05:05:39;;;;;;;4.80;4.00;;;;;;;;;;4906487;28;20750;-73
2022/12/25 05:08:06;;;;;;;5.50;4.23;;;;;;;;;;4896465;28;20698;-75
2022/12/25 05:10:34;;;;;;;6.23;4.80;;;;;;;;;;4928583;28;20224;-73
2022/12/25 05:13:01;;;;;;;7.37;3.90;;;;;;;;;;4930107;28;20209;-74
2022/12/25 05:15:28;;;;;;;4.70;4.00;;;;;;;;;;4932209;28;20212;-73
2022/12/25 05:17:55;;;;;;;4.77;3.77;;;;;;;;;;4923275;28;20212;-74
2022/12/25 05:20:22;;;;;;;4.43;3.70;;;;;;;;;;4926643;28;20224;-74
2022/12/25 05:22:49;;;;;;;4.40;3.93;;;;;;;;;;4926985;28;20212;-74
2022/12/25 05:25:17;;;;;;;4.90;4.40;;;;;;;;;;4923619;28;20235;-74
2022/12/25 05:27:44;;;;;;;4.23;3.67;;;;;;;;;;4911263;28;20209;-74
2022/12/25 05:30:19;;;;;;;5.30;4.57;;;;;;;;;;4915051;28;20228;-74
2022/12/25 05:32:50;;;;;;;4.00;3.60;;;;;;;;;;4929836;28;20201;-74
2022/12/25 05:35:17;;;;;;;4.00;3.60;;;;;;;;;;4926717;28;20295;-75
2022/12/25 05:37:44;;;;;;;3.67;3.37;;;;;;;;;;4937401;28;20339;-73
2022/12/25 05:40:12;;;;;;;4.40;3.47;;;;;;;;;;4945456;28;20231;-72
2022/12/25 05:42:39;;;;;;;4.53;4.00;;;;;;;;;;4955552;28;20436;-72
2022/12/25 05:45:06;;;;;;;4.60;3.87;;;;;;;;;;4952705;28;20274;-72
2022/12/25 05:47:34;;;;;;;5.20;4.20;;;;;;;;;;4921898;28;20209;-75
2022/12/25 05:50:01;;;;;;;4.27;3.87;;;;;;;;;;4905025;28;20220;-73
2022/12/25 05:52:31;;;;;;;4.37;3.80;;;;;;;;;;4928014;28;21526;-73
2022/12/25 05:54:59;;;;;;;4.30;3.70;;;;;;;;;;4916361;28;20247;-73
2022/12/25 05:57:30;;;;;;;5.07;4.53;;;;;;;;;;4916651;28;20710;-72
2022/12/25 05:59:57;;;;;;;5.47;4.27;;;;;;;;;;4928456;28;20216;-72
2022/12/25 06:02:25;;;;;;;5.63;4.77;;;;;;;;;;4919520;28;22086;-73
2022/12/25 06:04:56;;;;;;;6.87;5.13;;;;;;;;;;4929449;28;21313;-73
2022/12/25 06:07:23;;;;;;;5.90;4.57;;;;;;;;;;4927617;28;20205;-73
2022/12/25 06:09:50;;;;;;;6.67;4.83;;;;;;;;;;4920061;28;20220;-72
2022/12/25 06:12:18;;;;;;;7.73;5.53;;;;;;;;;;4933270;28;20216;-73
2022/12/25 06:14:45;;;;;;;6.97;5.43;;;;;;;;;;4961475;28;20663;-74
2022/12/25 06:17:12;;;;;;;7.60;5.87;;;;;;;;;;4954300;28;20709;-75
2022/12/25 06:19:41;;;;;;;9.03;5.60;;;;;;;;;;4967801;28;20561;-72
2022/12/25 06:22:08;;;;;;;6.70;6.00;;;;;;;;;;4954466;28;20255;-72
2022/12/25 06:24:36;;;;;;;8.60;5.73;;;;;;;;;;4953343;28;20323;-73
2022/12/25 06:27:03;;;;;;;7.07;5.73;;;;;;;;;;4959417;28;20205;-72
2022/12/25 06:29:30;;;;;;;10.50;7.57;;;;;;;;;;4963975;28;20212;-72
2022/12/25 06:31:57;;;;;;;11.03;7.00;;;;;;;;;;4954205;28;20232;-72
2022/12/25 06:34:25;;;;;;;8.37;6.53;;;;;;;;;;4970848;28;20223;-72
2022/12/25 06:36:53;;;;;;;11.37;7.97;;;;;;;;;;4965235;28;20834;-72
2022/12/25 06:39:20;;;;;;;10.53;8.13;;;;;;;;;;4930500;28;20331;-73
2022/12/25 06:41:47;;;;;;;10.57;7.90;;;;;;;;;;4939447;28;20268;-73
2022/12/25 06:44:15;;;;;;;12.17;8.70;;;;;;;;;;4935527;28;20248;-75
2022/12/25 06:46:42;;;;;;;9.97;8.03;;;;;;;;;;4919786;28;20218;-73
2022/12/25 06:49:10;;;;;;;12.20;7.97;;;;;;;;;;4931810;28;20215;-72
2022/12/25 06:51:37;;;;;;;11.93;9.77;;;;;;;;;;4934415;28;20232;-72
2022/12/25 06:54:05;;;;;;;13.50;10.00;;;;;;;;;;4940385;28;20240;-72
2022/12/25 06:56:33;;;;;;;11.87;9.40;;;;;;;;;;4953106;28;20303;-72
2022/12/25 06:59:02;;;;;;;16.03;9.93;;;;;;;;;;4930304;28;20235;-73
2022/12/25 07:01:35;;;;;;;12.47;9.00;;;;;;;;;;4935625;28;20228;-72
2022/12/25 07:04:05;;;;;;;14.63;10.43;;;;;;;;;;4938097;28;20220;-73
2022/12/25 07:06:32;;;;;;;22.73;16.47;;;;;;;;;;4937582;28;20208;-73
2022/12/25 07:08:59;;;;;;;14.40;11.77;;;;;;;;;;4941773;28;20208;-73
2022/12/25 07:11:26;;;;;;;10.83;8.10;;;;;;;;;;4952937;28;20232;-73
2022/12/25 07:13:54;;;;;;;8.07;7.13;;;;;;;;;;4939566;28;20228;-73
2022/12/25 07:16:21;;;;;;;8.03;6.77;;;;;;;;;;4931234;28;20307;-73
2022/12/25 07:18:49;;;;;;;8.97;6.87;;;;;;;;;;4922512;28;20213;-72
2022/12/25 07:21:17;;;;;;;6.07;5.40;;;;;;;;;;4938743;28;20232;-74
2022/12/25 07:23:45;;;;;;;6.87;6.17;;;;;;;;;;4934004;28;20230;-76
2022/12/25 07:26:13;;;;;;;7.30;6.60;;;;;;;;;;4925552;28;20779;-73
2022/12/25 07:28:40;;;;;;;7.43;6.07;;;;;;;;;;4938827;28;20303;-72
2022/12/25 07:31:09;;;;;;;7.83;5.97;;;;;;;;;;4931580;28;20724;-74
2022/12/25 07:33:37;;;;;;;8.07;6.90;;;;;;;;;;4942777;28;20205;-73
2022/12/25 07:36:04;;;;;;;9.40;7.27;;;;;;;;;;4941049;28;20204;-74
2022/12/25 07:38:32;;;;;;;9.73;7.77;;;;;;;;;;4971849;28;20299;-73
2022/12/25 07:40:59;;;;;;;9.70;7.10;;;;;;;;;;4969127;28;20695;-74
2022/12/25 07:43:26;;;;;;;7.43;6.13;;;;;;;;;;4966588;28;20306;-74
2022/12/25 07:45:57;;;;;;;8.20;7.23;;;;;;;;;;4953944;28;20569;-74
2022/12/25 07:48:25;;;;;;;8.43;7.17;;;;;;;;;;4945057;28;20216;-73
2022/12/25 07:50:57;;;;;;;8.70;6.90;;;;;;;;;;4936640;28;20224;-72
2022/12/25 07:53:24;;;;;;;10.03;9.00;;;;;;;;;;4939982;28;20220;-73
2022/12/25 07:55:58;;;;;;;11.40;9.80;;;;;;;;;;4944413;28;20258;-73
2022/12/25 07:58:26;;;;;;;11.83;10.57;;;;;;;;;;4931385;28;20207;-74
2022/12/25 08:00:53;;;;;;;11.73;8.67;;;;;;;;;;4938291;28;20228;-73
2022/12/25 08:03:21;;;;;;;9.10;7.57;;;;;;;;;;4946750;28;20200;-73
2022/12/25 08:05:48;;;;;;;26.57;18.77;;;;;;;;;;4931359;28;20311;-73
2022/12/25 08:08:15;;;;;;;24.57;15.27;;;;;;;;;;4945033;28;20219;-74
2022/12/25 08:10:47;;;;;;;14.50;9.90;;;;;;;;;;4937875;28;20705;-73
2022/12/25 08:13:14;;;;;;;11.50;9.63;;;;;;;;;;4915583;28;20303;-73
2022/12/25 08:15:41;;;;;;;10.03;8.80;;;;;;;;;;4928879;28;20227;-73
2022/12/25 08:18:10;;;;;;;9.07;7.87;;;;;;;;;;4934666;28;20237;-72
2022/12/25 08:20:37;;;;;;;8.83;7.93;;;;;;;;;;4929895;28;20920;-76
2022/12/25 08:23:05;;;;;;;7.03;5.70;;;;;;;;;;4940744;28;20327;-78
2022/12/25 08:25:32;;;;;;;5.70;4.80;;;;;;;;;;4930454;28;20228;-77
2022/12/25 08:28:00;;;;;;;9.63;8.13;;;;;;;;;;4934593;28;20237;-76
2022/12/25 08:30:27;;;;;;;8.10;7.00;;;;;;;;;;4930377;28;20224;-76
2022/12/25 08:32:55;;;;;;;6.70;5.60;;;;;;;;;;4929088;28;20207;-76
2022/12/25 08:35:22;;;;;;;6.63;5.07;;;;;;;;;;4937485;28;21137;-77
2022/12/25 08:37:49;;;;;;;6.13;4.73;;;;;;;;;;4931590;28;20732;-77
2022/12/25 08:40:16;;;;;;;8.67;5.60;;;;;;;;;;4923809;28;20736;-77
2022/12/25 08:42:44;;;;;;;10.03;6.00;;;;;;;;;;4936640;28;20212;-76
2022/12/25 08:45:11;;;;;;;8.17;6.20;;;;;;;;;;4931028;28;20323;-79
2022/12/25 08:47:38;;;;;;;8.87;6.60;;;;;;;;;;4940863;28;20303;-78
2022/12/25 08:50:06;;;;;;;8.37;6.13;;;;;;;;;;4957247;28;20509;-77
2022/12/25 08:52:34;;;;;;;5.80;4.97;;;;;;;;;;4959662;28;20291;-77
2022/12/25 08:55:01;;;;;;;5.90;4.27;;;;;;;;;;4948577;28;20220;-78
2022/12/25 08:57:28;;;;;;;6.33;4.57;;;;;;;;;;4954491;28;20580;-76
2022/12/25 08:59:55;;;;;;;5.00;4.50;;;;;;;;;;4946990;28;20208;-79
2022/12/25 09:02:23;;;;;;;5.07;4.57;;;;;;;;;;4950901;28;20676;-76
2022/12/25 09:04:50;;;;;;;5.57;4.50;;;;;;;;;;4952872;28;20315;-78
2022/12/25 09:07:17;;;;;;;4.70;4.30;;;;;;;;;;4926546;28;20249;-73
2022/12/25 09:09:45;;;;;;;4.93;4.43;;;;;;;;;;4957109;28;20232;-73
2022/12/25 09:12:12;;;;;;;5.43;4.47;;;;;;;;;;4943916;28;20222;-73
2022/12/25 09:14:39;;;;;;;6.17;5.57;;;;;;;;;;4942185;28;20212;-73
2022/12/25 09:17:06;;;;;;;7.53;5.87;;;;;;;;;;4941311;28;20212;-73
2022/12/25 09:19:34;;;;;;;6.70;6.00;;;;;;;;;;4941523;28;20217;-73
2022/12/25 09:22:02;;;;;;;5.27;4.77;;;;;;;;;;4954177;28;20239;-73
2022/12/25 09:24:29;;;;;;;7.13;4.90;;;;;;;;;;4950617;28;21264;-74
2022/12/25 09:26:56;;;;;;;6.00;4.40;;;;;;;;;;4950272;28;20210;-72
2022/12/25 09:29:23;;;;;;;5.90;4.50;;;;;;;;;;4941764;28;20215;-73
2022/12/25 09:31:51;;;;;;;6.17;5.67;;;;;;;;;;4925834;28;20232;-73
2022/12/25 09:34:18;;;;;;;5.40;4.90;;;;;;;;;;4902125;28;20212;-73
2022/12/25 09:36:46;;;;;;;5.40;5.00;;;;;;;;;;4930934;28;20215;-73
2022/12/25 09:39:13;;;;;;;4.80;4.33;;;;;;;;;;4920143;28;22699;-72
2022/12/25 09:41:51;;;;;;;5.10;4.30;;;;;;;;;;4917596;28;20856;-73
2022/12/25 09:44:24;;;;;;;4.80;4.40;;;;;;;;;;4934065;28;20200;-73
2022/12/25 09:47:00;;;;;;;6.83;5.13;;;;;;;;;;4933706;28;20212;-73
2022/12/25 09:49:28;;;;;;;5.87;4.13;;;;;;;;;;4957896;28;20212;-73
2022/12/25 09:51:59;;;;;;;4.20;3.80;;;;;;;;;;4930878;28;20244;-73
2022/12/25 09:54:37;;;;;;;4.50;4.10;;;;;;;;;;4942599;28;20644;-73
2022/12/25 09:57:05;;;;;;;4.93;3.90;;;;;;;;;;4929001;28;20230;-73
2022/12/25 09:59:32;;;;;;;4.30;3.90;;;;;;;;;;4924052;28;21120;-74
2022/12/25 10:02:18;;;;;;;5.30;4.37;;;;;;;;;;4932541;28;20231;-73
2022/12/25 10:04:49;;;;;;;4.77;4.27;;;;;;;;;;4949467;28;20228;-73
2022/12/25 10:07:21;;;;;;;4.83;4.40;;;;;;;;;;4947437;28;20668;-72
2022/12/25 10:10:08;;;;;;;4.63;4.13;;;;;;;;;;4948993;28;22115;-73
2022/12/25 10:12:53;;;;;;;4.60;4.20;;;;;;;;;;4951053;28;20589;-72
2022/12/25 10:15:43;;;;;;;5.63;4.30;;;;;;;;;;4958436;28;21438;-73
2022/12/25 10:18:30;;;;;;;4.33;3.93;;;;;;;;;;4937669;28;20204;-74
2022/12/25 10:21:00;;;;;;;3.80;3.50;;;;;;;;;;4946341;28;20310;-73
2022/12/25 10:23:33;;;;;;;4.80;3.00;;;;;;;;;;4937303;28;20683;-74
2022/12/25 10:26:01;;;;;;;3.33;3.13;;;;;;;;;;4940060;28;20236;-75
2022/12/25 10:28:37;;;;;;;3.03;2.77;;;;;;;;;;4934185;28;20678;-73
2022/12/25 10:31:13;;;;;;;3.30;2.83;;;;;;;;;;4946541;28;20918;-74
2022/12/25 10:33:41;;;;;;;3.43;2.80;;;;;;;;;;4925928;28;21778;-73
2022/12/25 10:36:08;;;;;;;2.97;2.70;;;;;;;;;;4953756;28;20211;-73
2022/12/25 10:38:36;;;;;;;3.00;2.80;;;;;;;;;;4945214;28;20216;-73
2022/12/25 10:41:03;;;;;;;2.70;2.50;;;;;;;;;;4951722;28;23045;-73
2022/12/25 10:43:45;;;;;;;3.17;2.80;;;;;;;;;;4926812;28;20246;-72
2022/12/25 10:46:14;;;;;;;4.20;3.33;;;;;;;;;;4932859;28;20276;-73
2022/12/25 10:48:42;;;;;;;3.30;3.10;;;;;;;;;;4938288;28;20201;-72
2022/12/25 10:51:10;;;;;;;3.17;2.97;;;;;;;;;;4929978;28;20663;-73
2022/12/25 10:53:38;;;;;;;3.50;3.20;;;;;;;;;;4935128;28;20216;-73
2022/12/25 10:56:07;;;;;;;3.50;3.00;;;;;;;;;;4934826;28;20307;-73
2022/12/25 10:58:34;;;;;;;3.08;2.80;;;;;;;;;;4921291;28;20219;-74
2022/12/25 11:01:04;;;;;;;3.40;3.05;;;;;;;;;;4930999;28;20236;-73
2022/12/25 11:03:32;;;;;;;3.75;3.45;;;;;;;;;;4943318;28;20211;-73
2022/12/25 11:06:00;;;;;;;3.67;3.37;;;;;;;;;;4940519;28;20217;-75
2022/12/25 11:08:30;;;;;;;3.60;3.30;;;;;;;;;;4946132;28;20600;-73
2022/12/25 11:11:04;;;;;;;4.10;3.70;;;;;;;;;;4948471;28;20228;-74
2022/12/25 11:13:39;;;;;;;10.30;9.32;;;;;;;;;;4952149;28;20261;-73
2022/12/25 11:16:11;;;;;;;17.63;15.88;;;;;;;;;;4960552;28;20644;-72
2022/12/25 11:18:46;;;;;;;12.27;11.02;;;;;;;;;;4952036;28;20271;-73
2022/12/25 11:21:19;;;;;;;7.78;7.07;;;;;;;;;;4939012;28;20673;-73
2022/12/25 11:23:47;;;;;;;6.07;5.57;;;;;;;;;;4952326;28;21713;-73
2022/12/25 11:26:15;;;;;;;2.85;2.65;;;;;;;;;;4912024;28;20294;-72
2022/12/25 11:28:43;;;;;;;3.08;2.83;;;;;;;;;;4941978;28;20208;-73
2022/12/25 11:31:18;;;;;;;2.53;2.33;;;;;;;;;;4941031;28;20338;-73
2022/12/25 11:33:45;;;;;;;3.00;2.80;;;;;;;;;;4945574;28;20212;-73
2022/12/25 11:36:22;;;;;;;2.90;2.70;;;;;;;;;;4924412;28;20237;-73
2022/12/25 11:38:50;;;;;;;4.38;3.97;;;;;;;;;;4943620;28;20214;-73
2022/12/25 11:41:22;;;;;;;2.97;2.77;;;;;;;;;;4946340;28;20594;-73
2022/12/25 11:43:52;;;;;;;1.75;1.65;;;;;;;;;;4942510;28;20282;-72
2022/12/25 11:46:39;;;;;;;1.80;1.70;;;;;;;;;;4932585;28;20222;-73
2022/12/25 11:49:10;;;;;;;2.47;2.10;;;;;;;;;;4941571;28;20224;-73
2022/12/25 11:51:39;;;;;;;2.05;1.95;;;;;;;;;;4930064;28;20243;-74
2022/12/25 11:54:15;;;;;;;1.45;1.45;;;;;;;;;;4945239;28;20287;-74
2022/12/25 11:56:43;;;;;;;1.60;1.50;;;;;;;;;;4931338;28;23535;-73
2022/12/25 11:59:17;;;;;;;1.88;1.40;;;;;;;;;;4937335;28;20224;-73
2022/12/25 12:01:48;;;;;;;1.30;1.20;;;;;;;;;;4916787;28;20220;-73
2022/12/25 12:04:28;;;;;;;1.30;1.30;;;;;;;;;;4955156;28;20209;-72
2022/12/25 12:07:21;;;;;;;1.20;1.20;;;;;;;;;;4941246;28;20259;-73
2022/12/25 12:10:07;;;;;;;1.50;1.40;;;;;;;;;;4958494;28;20204;-72
2022/12/25 12:12:39;;;;;;;2.13;1.88;;;;;;;;;;4946661;28;20226;-73
2022/12/25 12:15:33;;;;;;;1.33;1.10;;;;;;;;;;4942077;28;20637;-73
2022/12/25 12:18:27;;;;;;;1.95;1.85;;;;;;;;;;4947879;28;20224;-72
2022/12/25 12:21:13;;;;;;;1.33;1.33;;;;;;;;;;4942033;28;20230;-75
2022/12/25 12:23:55;;;;;;;1.88;1.45;;;;;;;;;;4938559;28;20207;-73
2022/12/25 12:26:29;;;;;;;1.88;1.60;;;;;;;;;;4932946;28;20215;-73
2022/12/25 12:29:00;;;;;;;1.70;1.60;;;;;;;;;;4938299;28;20273;-74
2022/12/25 12:31:45;;;;;;;1.50;1.40;;;;;;;;;;4907363;28;20241;-73
2022/12/25 12:34:26;;;;;;;2.30;1.80;;;;;;;;;;4918905;28;20211;-74
2022/12/25 12:37:06;;;;;;;1.77;1.67;;;;;;;;;;4932698;28;20236;-73
2022/12/25 12:39:35;;;;;;;1.70;1.60;;;;;;;;;;4963663;28;20214;-73
2022/12/25 12:42:11;;;;;;;1.45;1.27;;;;;;;;;;4972473;28;20256;-73
2022/12/25 12:44:39;;;;;;;1.30;1.20;;;;;;;;;;4971539;28;20209;-73
2022/12/25 12:47:06;;;;;;;2.13;1.88;;;;;;;;;;4973437;28;20295;-74
2022/12/25 12:49:33;;;;;;;2.42;1.88;;;;;;;;;;4973414;28;21024;-75
2022/12/25 12:52:09;;;;;;;1.75;1.65;;;;;;;;;;4962745;28;20231;-74
2022/12/25 12:54:51;;;;;;;1.63;1.52;;;;;;;;;;4977038;28;20214;-75
2022/12/25 12:57:24;;;;;;;1.80;1.60;;;;;;;;;;4971212;28;20236;-75
2022/12/25 12:59:51;;;;;;;1.50;1.40;;;;;;;;;;4966811;28;20236;-75
2022/12/25 13:02:18;;;;;;;2.60;1.70;;;;;;;;;;4963851;28;20212;-75
2022/12/25 13:04:56;;;;;;;1.80;1.70;;;;;;;;;;4976407;28;20236;-74
2022/12/25 13:07:32;;;;;;;2.13;1.73;;;;;;;;;;4968712;28;21089;-75
2022/12/25 13:10:08;;;;;;;3.53;1.80;;;;;;;;;;4971657;28;20235;-73
2022/12/25 13:12:36;;;;;;;1.60;1.50;;;;;;;;;;4972613;28;20230;-73
2022/12/25 13:15:03;;;;;;;1.40;1.35;;;;;;;;;;4975225;28;20208;-73
2022/12/25 13:17:31;;;;;;;1.38;1.27;;;;;;;;;;4958941;28;20214;-73
2022/12/25 13:19:59;;;;;;;2.00;1.80;;;;;;;;;;4945645;28;20208;-73
2022/12/25 13:22:34;;;;;;;1.75;1.65;;;;;;;;;;4961576;28;20208;-74
2022/12/25 13:25:03;;;;;;;2.17;1.80;;;;;;;;;;4961046;28;20231;-74
2022/12/25 13:27:32;;;;;;;2.70;2.50;;;;;;;;;;4970580;28;20213;-75
2022/12/25 13:30:10;;;;;;;2.00;1.80;;;;;;;;;;4950806;28;20218;-75
2022/12/25 13:32:37;;;;;;;2.35;2.15;;;;;;;;;;4962684;28;20739;-74
2022/12/25 13:35:05;;;;;;;2.13;1.90;;;;;;;;;;4977507;28;20219;-74
2022/12/25 13:37:32;;;;;;;1.83;1.73;;;;;;;;;;4964787;28;20310;-74
2022/12/25 13:40:00;;;;;;;1.90;1.80;;;;;;;;;;4974533;28;20765;-74
2022/12/25 13:42:29;;;;;;;2.00;1.80;;;;;;;;;;4964350;28;20295;-73
2022/12/25 13:45:01;;;;;;;1.92;1.80;;;;;;;;;;4972400;28;20216;-74
2022/12/25 13:47:29;;;;;;;3.67;2.45;;;;;;;;;;4963193;28;20236;-74
2022/12/25 13:49:57;;;;;;;2.53;2.33;;;;;;;;;;4978792;28;20323;-73
2022/12/25 13:52:35;;;;;;;2.10;2.00;;;;;;;;;;4971959;28;20215;-74
2022/12/25 13:55:12;;;;;;;1.52;1.48;;;;;;;;;;4971655;28;20409;-74
2022/12/25 13:57:41;;;;;;;2.75;1.63;;;;;;;;;;4968340;28;20219;-74
2022/12/25 14:00:17;;;;;;;1.75;1.65;;;;;;;;;;4966570;28;20315;-75
2022/12/25 14:02:44;;;;;;;1.90;1.80;;;;;;;;;;4975390;28;20204;-74
2022/12/25 14:05:27;;;;;;;1.80;1.70;;;;;;;;;;4977538;28;20707;-74
2022/12/25 14:07:56;;;;;;;2.70;2.47;;;;;;;;;;4972781;28;20581;-74
2022/12/25 14:10:25;;;;;;;2.60;2.38;;;;;;;;;;4977171;28;20658;-74
2022/12/25 14:12:53;;;;;;;2.40;2.20;;;;;;;;;;4977080;28;20326;-74
2022/12/25 14:15:22;;;;;;;2.25;1.83;;;;;;;;;;4973630;28;20928;-74
2022/12/25 14:17:50;;;;;;;2.40;2.20;;;;;;;;;;4945213;28;20423;-75
2022/12/25 14:20:28;;;;;;;2.30;2.10;;;;;;;;;;4945547;28;20231;-75
2022/12/25 14:22:57;;;;;;;4.88;2.40;;;;;;;;;;4955427;28;20691;-75
2022/12/25 14:25:33;;;;;;;6.65;4.00;;;;;;;;;;4940951;28;20208;-74
2022/12/25 14:28:00;;;;;;;5.75;4.05;;;;;;;;;;4948049;28;20222;-74
2022/12/25 14:30:28;;;;;;;7.93;5.55;;;;;;;;;;4937201;28;20419;-74
2022/12/25 14:32:56;;;;;;;9.98;5.38;;;;;;;;;;4941562;28;20471;-74
2022/12/25 14:35:23;;;;;;;5.88;4.63;;;;;;;;;;4943165;28;20204;-74
2022/12/25 14:37:55;;;;;;;15.60;11.68;;;;;;;;;;4944402;28;20663;-74
2022/12/25 14:40:26;;;;;;;7.60;6.63;;;;;;;;;;4950808;28;20266;-75
2022/12/25 14:42:55;;;;;;;1.58;1.40;;;;;;;;;;4946586;28;20342;-73
2022/12/25 14:45:23;;;;;;;1.90;1.80;;;;;;;;;;4947714;28;20204;-74
2022/12/25 14:47:51;;;;;;;2.42;2.22;;;;;;;;;;4934781;28;20278;-74
2022/12/25 14:50:45;;;;;;;3.00;2.70;;;;;;;;;;4955461;28;20232;-74
2022/12/25 14:53:20;;;;;;;3.30;2.53;;;;;;;;;;4942741;28;20609;-74
2022/12/25 14:55:51;;;;;;;3.17;2.10;;;;;;;;;;4940975;28;21189;-74
2022/12/25 14:58:21;;;;;;;2.40;2.20;;;;;;;;;;4941936;28;20216;-74
2022/12/25 15:00:56;;;;;;;2.30;2.10;;;;;;;;;;4938971;28;20243;-74
2022/12/25 15:03:31;;;;;;;2.90;2.10;;;;;;;;;;4934974;28;20199;-74
2022/12/25 15:06:00;;;;;;;2.20;2.00;;;;;;;;;;4935268;28;20224;-74
2022/12/25 15:08:28;;;;;;;3.40;2.17;;;;;;;;;;4936087;28;20734;-74
2022/12/25 15:10:56;;;;;;;3.00;2.70;;;;;;;;;;4944261;28;20235;-75
2022/12/25 15:13:28;;;;;;;2.73;2.53;;;;;;;;;;4938302;28;20682;-75
2022/12/25 15:16:05;;;;;;;2.27;2.07;;;;;;;;;;4946117;28;20466;-74
2022/12/25 15:18:37;;;;;;;2.37;2.17;;;;;;;;;;4946208;28;20209;-75
2022/12/25 15:21:05;;;;;;;3.90;1.97;;;;;;;;;;4945946;28;20795;-74
2022/12/25 15:23:32;;;;;;;2.60;2.00;;;;;;;;;;4931473;28;21605;-75
2022/12/25 15:25:59;;;;;;;2.80;2.13;;;;;;;;;;4942687;28;20212;-74
2022/12/25 15:28:26;;;;;;;2.00;1.90;;;;;;;;;;4922086;28;22646;-74
2022/12/25 15:30:54;;;;;;;2.13;1.93;;;;;;;;;;4936630;28;20694;-73
2022/12/25 15:33:21;;;;;;;1.83;1.73;;;;;;;;;;4936568;28;20704;-73
2022/12/25 15:35:48;;;;;;;2.30;2.10;;;;;;;;;;4936080;28;20762;-74
2022/12/25 15:38:16;;;;;;;3.27;2.40;;;;;;;;;;4950737;28;20201;-74
2022/12/25 15:40:43;;;;;;;3.50;2.53;;;;;;;;;;4948480;28;20743;-73
2022/12/25 15:43:15;;;;;;;2.30;2.10;;;;;;;;;;4931749;28;20895;-73
2022/12/25 15:46:02;;;;;;;2.10;1.90;;;;;;;;;;4927546;28;20220;-73
2022/12/25 15:48:30;;;;;;;3.30;3.10;;;;;;;;;;4913322;28;21344;-73
2022/12/25 15:50:57;;;;;;;4.20;3.80;;;;;;;;;;4918313;28;20604;-73
2022/12/25 15:53:25;;;;;;;5.87;4.07;;;;;;;;;;4935172;28;20838;-73
2022/12/25 15:55:53;;;;;;;3.90;3.50;;;;;;;;;;4898909;28;20465;-73
2022/12/25 15:58:20;;;;;;;4.73;4.17;;;;;;;;;;4915919;28;20208;-74
2022/12/25 16:00:47;;;;;;;3.60;3.30;;;;;;;;;;4902026;28;20235;-75
2022/12/25 16:03:14;;;;;;;4.33;3.47;;;;;;;;;;4919741;28;20196;-76
2022/12/25 16:05:42;;;;;;;2.50;2.27;;;;;;;;;;4944707;28;21181;-75
2022/12/25 16:08:09;;;;;;;2.43;2.23;;;;;;;;;;4948764;28;20366;-77
2022/12/25 16:10:36;;;;;;;2.80;2.03;;;;;;;;;;4945637;28;20566;-77
2022/12/25 16:13:06;;;;;;;2.77;2.57;;;;;;;;;;4946544;28;20637;-77
2022/12/25 16:15:33;;;;;;;2.50;2.00;;;;;;;;;;4935572;28;20270;-77
2022/12/25 16:18:01;;;;;;;2.57;2.37;;;;;;;;;;4939332;28;20251;-76
2022/12/25 16:20:28;;;;;;;2.57;2.13;;;;;;;;;;4951892;28;20518;-76
2022/12/25 16:22:56;;;;;;;4.27;3.07;;;;;;;;;;4944016;28;20671;-76
2022/12/25 16:25:23;;;;;;;2.50;2.30;;;;;;;;;;4945820;28;20205;-76
2022/12/25 16:27:51;;;;;;;1.80;1.70;;;;;;;;;;4943792;28;20212;-75
2022/12/25 16:30:19;;;;;;;2.70;2.50;;;;;;;;;;4940623;28;20871;-77
2022/12/25 16:32:48;;;;;;;2.67;2.07;;;;;;;;;;4947234;28;20218;-77
2022/12/25 16:35:16;;;;;;;1.77;1.67;;;;;;;;;;4924860;28;20211;-76
2022/12/25 16:37:44;;;;;;;1.80;1.70;;;;;;;;;;4930416;28;20367;-77
2022/12/25 16:40:11;;;;;;;1.47;1.47;;;;;;;;;;4939951;28;20370;-75
2022/12/25 16:42:39;;;;;;;2.37;2.10;;;;;;;;;;4928593;28;20343;-77